Time;durP1;ratioP1;P1;durP2;ratioP2;P2;SDS_P1;SDS_P2;PMS_P1;PMS_P2;Temp;Humidity;BMP_temperature;BMP_pressure;BME280_temperature;BME280_humidity;BME280_pressure;Samples;Min_cycle;Max_cycle;Signal;HPM_P1;HPM_P2
2023/01/25 00:01:16;;;;;;;18.20;9.63;;;;;;;5.50;69.17;102281.38;10211923;28;20318;-62
2023/01/25 00:06:18;;;;;;;16.42;8.75;;;;;;;5.53;69.18;102267.84;10232509;28;20051;-62
2023/01/25 00:11:20;;;;;;;18.13;9.73;;;;;;;5.53;69.47;102273.19;10230493;28;20075;-61
2023/01/25 00:16:22;;;;;;;18.50;9.20;;;;;;;5.50;68.91;102262.69;10229992;29;20072;-62
2023/01/25 00:21:25;;;;;;;17.75;9.45;;;;;;;5.47;69.65;102268.25;10231882;29;20040;-62
2023/01/25 00:26:29;;;;;;;19.83;8.82;;;;;;;5.38;69.07;102259.94;10231627;28;20076;-62
2023/01/25 00:31:36;;;;;;;18.27;9.40;;;;;;;5.43;69.73;102250.72;10232047;29;20079;-61
2023/01/25 00:36:37;;;;;;;17.80;8.80;;;;;;;5.48;69.24;102259.28;10230963;28;20059;-62
2023/01/25 00:41:39;;;;;;;17.02;8.90;;;;;;;5.53;69.17;102243.00;10234502;29;20052;-62
2023/01/25 00:46:40;;;;;;;17.92;9.00;;;;;;;5.56;69.41;102248.13;10225349;28;20048;-62
2023/01/25 00:51:42;;;;;;;18.55;9.70;;;;;;;5.57;68.90;102241.84;10223952;28;20032;-61
2023/01/25 00:56:44;;;;;;;17.30;9.80;;;;;;;5.57;69.21;102239.19;10230126;28;20055;-62
2023/01/25 01:01:45;;;;;;;13.15;7.07;;;;;;;5.43;69.86;102241.84;10226244;28;20060;-61
2023/01/25 01:06:47;;;;;;;16.55;9.40;;;;;;;5.46;69.16;102249.66;10230118;28;20039;-63
2023/01/25 01:11:49;;;;;;;18.08;9.90;;;;;;;5.45;69.06;102248.81;10233461;28;20047;-61
2023/01/25 01:16:50;;;;;;;18.92;9.18;;;;;;;5.49;69.21;102258.34;10232858;29;20040;-62
2023/01/25 01:21:51;;;;;;;16.02;7.65;;;;;;;5.46;69.38;102253.19;10232720;28;20052;-63
2023/01/25 01:26:53;;;;;;;18.40;9.75;;;;;;;5.40;69.09;102248.22;10229508;29;20073;-61
2023/01/25 01:31:55;;;;;;;19.40;9.75;;;;;;;5.40;69.57;102242.03;10232623;28;20036;-61
2023/01/25 01:36:56;;;;;;;18.10;9.77;;;;;;;5.51;68.57;102235.09;10230746;29;20048;-62
2023/01/25 01:41:58;;;;;;;19.27;9.75;;;;;;;5.55;68.72;102235.75;10227751;28;20056;-62
2023/01/25 01:46:59;;;;;;;17.08;9.15;;;;;;;5.56;68.88;102235.63;10233939;28;20122;-63
2023/01/25 01:52:15;;;;;;;16.67;8.45;;;;;;;5.59;68.96;102231.06;10230335;29;20095;-63
2023/01/25 01:57:23;;;;;;;15.93;8.55;;;;;;;5.56;68.91;102224.13;10221550;28;20071;-62
2023/01/25 02:02:25;;;;;;;16.90;8.60;;;;;;;5.54;69.23;102221.53;10232811;29;20043;-62
2023/01/25 02:07:36;;;;;;;18.17;9.68;;;;;;;5.46;69.11;102225.66;10214958;28;20087;-61
2023/01/25 02:12:37;;;;;;;17.38;8.18;;;;;;;5.36;69.79;102228.88;10235272;29;20244;-63
2023/01/25 02:17:40;;;;;;;15.10;8.30;;;;;;;5.34;69.70;102221.94;10240362;29;20059;-62
2023/01/25 02:23:10;;;;;;;18.23;8.68;;;;;;;5.25;69.73;102222.50;10221375;29;20048;-62
2023/01/25 02:28:17;;;;;;;15.00;8.90;;;;;;;5.23;69.92;102217.25;10228277;29;20051;-63
2023/01/25 02:33:22;;;;;;;16.63;7.43;;;;;;;5.16;69.79;102211.47;10235144;28;20051;-62
2023/01/25 02:38:24;;;;;;;19.60;8.63;;;;;;;5.22;69.35;102214.72;10226311;28;20051;-62
2023/01/25 02:43:31;;;;;;;18.15;8.68;;;;;;;5.26;69.40;102209.09;10235717;29;20081;-62
2023/01/25 02:48:32;;;;;;;16.02;8.20;;;;;;;5.27;69.38;102209.94;10234014;29;20056;-64
2023/01/25 02:53:34;;;;;;;16.02;7.95;;;;;;;5.19;69.63;102205.06;10216362;29;20039;-62
2023/01/25 02:58:35;;;;;;;16.58;8.98;;;;;;;5.19;69.36;102213.06;10236953;28;20048;-62
2023/01/25 03:03:37;;;;;;;15.38;7.57;;;;;;;5.11;69.93;102204.69;10231514;28;20052;-62
2023/01/25 03:08:38;;;;;;;15.45;8.43;;;;;;;5.05;69.75;102203.25;10236058;28;20056;-62
2023/01/25 03:13:39;;;;;;;17.27;9.30;;;;;;;5.14;69.71;102199.19;10232729;28;20035;-61
2023/01/25 03:18:42;;;;;;;17.00;8.57;;;;;;;5.10;70.01;102198.53;10234845;28;20123;-62
2023/01/25 03:23:44;;;;;;;17.67;8.38;;;;;;;5.13;69.49;102195.69;10237263;28;20047;-62
2023/01/25 03:28:46;;;;;;;18.58;9.25;;;;;;;5.10;69.94;102173.69;10234437;28;20052;-61
2023/01/25 03:33:48;;;;;;;16.58;8.95;;;;;;;5.12;70.10;102182.44;10231497;28;20109;-63
2023/01/25 03:38:49;;;;;;;17.88;9.30;;;;;;;5.02;69.68;102175.97;10240389;28;20036;-62
2023/01/25 03:43:51;;;;;;;17.45;8.55;;;;;;;5.09;70.13;102170.13;10232031;28;20083;-62
2023/01/25 03:48:52;;;;;;;15.88;8.32;;;;;;;5.05;69.84;102173.09;10230228;28;20185;-62
2023/01/25 03:53:54;;;;;;;14.57;7.60;;;;;;;4.94;70.54;102169.28;10234537;29;20047;-62
2023/01/25 03:58:55;;;;;;;17.83;8.95;;;;;;;4.90;70.22;102172.25;10212490;29;20048;-62
2023/01/25 04:03:56;;;;;;;14.98;7.78;;;;;;;4.82;70.25;102171.84;10232610;28;20042;-63
2023/01/25 04:08:58;;;;;;;17.30;8.50;;;;;;;4.88;70.49;102164.34;10231048;28;20059;-61
2023/01/25 04:13:59;;;;;;;18.50;9.70;;;;;;;4.94;70.17;102171.09;10233867;28;20063;-62
2023/01/25 04:19:00;;;;;;;16.40;8.10;;;;;;;4.88;69.92;102163.50;10231267;28;20075;-62
2023/01/25 04:24:02;;;;;;;15.80;8.30;;;;;;;4.92;69.97;102157.88;10211559;28;20048;-62
2023/01/25 04:29:03;;;;;;;20.70;8.63;;;;;;;4.95;69.94;102147.00;10229024;28;20040;-62
2023/01/25 04:34:05;;;;;;;17.33;8.35;;;;;;;4.89;70.43;102150.06;10228793;28;20052;-62
2023/01/25 04:39:06;;;;;;;17.88;8.00;;;;;;;4.92;70.33;102138.38;10232747;28;20159;-61
2023/01/25 04:44:08;;;;;;;19.27;10.15;;;;;;;4.91;70.09;102132.16;10227173;28;20134;-62
2023/01/25 04:49:09;;;;;;;17.65;9.07;;;;;;;4.87;70.37;102125.31;10232039;28;20035;-62
2023/01/25 04:54:10;;;;;;;18.80;9.38;;;;;;;4.92;70.21;102114.38;10230324;28;20044;-63
2023/01/25 04:59:12;;;;;;;17.55;8.73;;;;;;;5.00;70.32;102113.91;10231342;28;20044;-62
2023/01/25 05:04:13;;;;;;;19.02;9.77;;;;;;;5.00;70.46;102112.09;10231226;28;20032;-61
2023/01/25 05:09:16;;;;;;;17.05;9.13;;;;;;;5.02;70.27;102102.19;10232209;28;20068;-62
2023/01/25 05:14:17;;;;;;;19.65;9.45;;;;;;;4.96;70.36;102107.91;10233886;29;20158;-62
2023/01/25 05:19:18;;;;;;;17.48;9.18;;;;;;;5.01;69.86;102102.28;10213266;28;20063;-62
2023/01/25 05:24:20;;;;;;;19.50;9.93;;;;;;;4.97;70.23;102101.63;10233623;28;20031;-62
2023/01/25 05:29:21;;;;;;;16.77;9.20;;;;;;;5.00;69.87;102097.91;10230290;28;20075;-62
2023/01/25 05:34:23;;;;;;;20.25;9.60;;;;;;;5.08;69.62;102103.63;10224880;29;20056;-61
2023/01/25 05:39:24;;;;;;;18.80;8.93;;;;;;;5.06;70.22;102102.88;10235788;29;20036;-61
2023/01/25 05:44:26;;;;;;;19.42;9.45;;;;;;;5.03;69.81;102092.38;10239169;29;20075;-62
2023/01/25 05:49:27;;;;;;;18.33;9.45;;;;;;;5.11;69.79;102092.75;10238152;28;20048;-62
2023/01/25 05:54:29;;;;;;;21.02;10.13;;;;;;;5.06;69.97;102086.88;10237834;29;20191;-62
2023/01/25 05:59:30;;;;;;;20.10;9.32;;;;;;;5.04;70.15;102080.78;10232802;28;20469;-62
2023/01/25 06:04:31;;;;;;;19.13;9.82;;;;;;;5.10;69.69;102085.72;10239599;28;20137;-62
2023/01/25 06:09:33;;;;;;;21.23;10.10;;;;;;;5.15;70.02;102091.59;10235464;28;20056;-61
2023/01/25 06:14:34;;;;;;;19.08;10.00;;;;;;;5.06;69.93;102089.53;10235186;28;20035;-62
2023/01/25 06:19:36;;;;;;;18.58;9.07;;;;;;;5.03;69.86;102090.56;10214291;29;20059;-61
2023/01/25 06:24:37;;;;;;;19.65;8.95;;;;;;;4.95;69.85;102077.72;10225605;29;20084;-62
2023/01/25 06:29:38;;;;;;;22.00;10.60;;;;;;;4.92;70.09;102090.41;10237091;28;20277;-62
2023/01/25 06:34:40;;;;;;;19.98;9.07;;;;;;;4.95;70.14;102088.38;10232745;28;20124;-62
2023/01/25 06:39:41;;;;;;;18.92;9.60;;;;;;;4.89;69.75;102091.44;10236604;29;20048;-62
2023/01/25 06:44:43;;;;;;;19.50;9.63;;;;;;;4.82;70.35;102092.78;10234706;29;20075;-62
2023/01/25 06:49:44;;;;;;;21.83;10.70;;;;;;;4.83;70.18;102089.16;10217801;28;20062;-63
2023/01/25 06:54:45;;;;;;;19.65;9.32;;;;;;;4.71;70.26;102088.09;10230427;28;20060;-62
2023/01/25 06:59:47;;;;;;;19.08;9.25;;;;;;;4.71;70.72;102087.25;10233663;28;20055;-61
2023/01/25 07:04:48;;;;;;;21.05;10.00;;;;;;;4.73;70.27;102080.03;10232552;28;20048;-62
2023/01/25 07:09:49;;;;;;;17.90;9.10;;;;;;;4.64;70.42;102092.13;10232387;28;20035;-62
2023/01/25 07:14:51;;;;;;;23.15;9.98;;;;;;;4.70;69.94;102085.53;10229265;28;20048;-61
2023/01/25 07:19:52;;;;;;;21.77;10.68;;;;;;;4.84;70.11;102087.34;10228146;29;20040;-61
2023/01/25 07:24:56;;;;;;;19.05;10.35;;;;;;;4.76;70.59;102086.03;10223968;29;20043;-62
2023/01/25 07:29:58;;;;;;;23.17;11.30;;;;;;;4.84;70.31;102084.69;10228465;29;20036;-61
2023/01/25 07:34:59;;;;;;;22.10;10.50;;;;;;;4.89;70.05;102083.44;10230265;29;20071;-62
2023/01/25 07:40:00;;;;;;;18.80;9.80;;;;;;;4.80;70.48;102078.72;10223769;29;20110;-61
2023/01/25 07:45:02;;;;;;;22.73;10.32;;;;;;;4.87;70.39;102069.34;10221881;29;20115;-62
2023/01/25 07:50:04;;;;;;;23.08;10.57;;;;;;;4.85;70.43;102076.59;10221966;29;20040;-62
2023/01/25 07:55:05;;;;;;;23.17;10.40;;;;;;;4.85;69.97;102073.94;10228881;29;20035;-62
2023/01/25 08:00:08;;;;;;;25.02;11.52;;;;;;;4.88;70.04;102071.09;10224051;29;20048;-62
2023/01/25 08:05:10;;;;;;;22.38;10.95;;;;;;;4.82;70.61;102078.59;10228436;29;20075;-62
2023/01/25 08:10:11;;;;;;;22.45;10.30;;;;;;;4.88;69.85;102083.56;10227366;29;20207;-62
2023/01/25 08:15:13;;;;;;;22.73;9.90;;;;;;;4.87;70.12;102074.69;10225773;29;20047;-62
2023/01/25 08:20:15;;;;;;;25.48;11.35;;;;;;;4.88;70.18;102076.41;10226234;29;20099;-63
2023/01/25 08:25:16;;;;;;;20.92;10.30;;;;;;;4.82;70.60;102076.81;10225836;29;20047;-62
2023/01/25 08:30:18;;;;;;;22.10;9.23;;;;;;;4.81;70.18;102084.88;10227239;29;20039;-62
2023/01/25 08:35:19;;;;;;;23.58;11.50;;;;;;;4.66;70.65;102076.91;10219827;29;20052;-62
2023/01/25 08:40:23;;;;;;;23.65;11.57;;;;;;;4.65;70.66;102072.50;10220992;29;20044;-61
2023/01/25 08:45:24;;;;;;;22.92;10.55;;;;;;;4.68;70.49;102069.66;10225849;29;20220;-62
2023/01/25 08:50:26;;;;;;;25.13;11.00;;;;;;;4.72;70.88;102060.53;10223847;29;20070;-62
2023/01/25 08:55:27;;;;;;;26.73;11.95;;;;;;;4.68;70.59;102060.81;10221730;29;20066;-62
2023/01/25 09:00:29;;;;;;;20.80;10.07;;;;;;;4.76;70.76;102051.41;10226708;28;20056;-63
2023/01/25 09:05:33;;;;;;;26.80;10.38;;;;;;;4.75;70.43;102052.34;10230481;28;20043;-63
2023/01/25 09:10:35;;;;;;;26.10;10.45;;;;;;;4.77;70.29;102047.75;10233745;29;20080;-62
2023/01/25 09:15:36;;;;;;;23.98;10.15;;;;;;;4.79;70.21;102050.34;10229939;28;20055;-62
2023/01/25 09:20:38;;;;;;;20.60;10.20;;;;;;;4.83;70.14;102046.53;10231509;29;20055;-63
2023/01/25 09:25:40;;;;;;;22.20;10.00;;;;;;;4.87;70.53;102034.72;10234014;29;20091;-62
2023/01/25 09:30:41;;;;;;;23.75;10.65;;;;;;;4.71;70.90;102031.31;10244992;28;20052;-62
2023/01/25 09:35:50;;;;;;;22.58;9.45;;;;;;;4.59;70.75;102040.09;10242087;28;20036;-63
2023/01/25 09:41:25;;;;;;;22.73;9.27;;;;;;;4.62;70.77;102042.53;10240984;28;20108;-62
2023/01/25 09:46:39;;;;;;;18.95;8.52;;;;;;;4.63;70.54;102038.94;10205441;29;20063;-63
2023/01/25 09:52:11;;;;;;;20.52;9.93;;;;;;;4.61;70.65;102035.53;10235155;28;20055;-63
2023/01/25 09:57:36;;;;;;;22.60;9.45;;;;;;;4.72;70.69;102036.56;10218780;29;20047;-64
2023/01/25 10:02:48;;;;;;;22.52;10.13;;;;;;;4.85;70.14;102028.63;10237048;29;20063;-63
2023/01/25 10:08:06;;;;;;;22.88;9.10;;;;;;;4.81;71.05;102031.59;10233954;29;20036;-62
2023/01/25 10:13:11;;;;;;;20.53;8.60;;;;;;;4.86;70.60;102017.03;10239472;28;20334;-62
2023/01/25 10:18:51;;;;;;;18.15;8.55;;;;;;;4.85;70.44;101998.47;10236634;28;20276;-64
2023/01/25 10:24:14;;;;;;;22.10;9.32;;;;;;;4.92;70.61;102005.13;10231956;29;20051;-62
2023/01/25 10:29:21;;;;;;;20.38;8.73;;;;;;;4.83;70.48;101997.72;10229923;28;20054;-64
2023/01/25 10:34:33;;;;;;;23.60;9.85;;;;;;;4.82;70.89;101993.34;10235494;28;20055;-62
2023/01/25 10:39:58;;;;;;;24.75;9.85;;;;;;;4.76;70.94;101989.28;10236677;28;20035;-63
2023/01/25 10:44:59;;;;;;;21.27;8.85;;;;;;;4.77;70.20;101975.84;10232606;28;20048;-61
2023/01/25 10:50:01;;;;;;;20.98;8.63;;;;;;;4.79;70.59;101959.75;10232056;29;20051;-62
2023/01/25 10:55:24;;;;;;;20.13;9.40;;;;;;;4.76;70.68;101955.50;10225900;28;20067;-62
2023/01/25 11:00:37;;;;;;;23.25;9.90;;;;;;;4.93;70.42;101949.06;10219162;29;20056;-61
2023/01/25 11:05:40;;;;;;;22.40;10.18;;;;;;;4.97;70.16;101949.72;10217813;29;20051;-62
2023/01/25 11:10:45;;;;;;;19.17;8.30;;;;;;;4.95;70.27;101933.81;10218912;29;20052;-62
2023/01/25 11:16:13;;;;;;;25.05;10.48;;;;;;;4.89;70.37;101933.38;10222115;29;20055;-62
2023/01/25 11:21:17;;;;;;;;;;;;;;;4.73;71.11;101925.53;10217595;29;20066;-60
2023/01/25 11:26:19;;;;;;;22.85;9.48;;;;;;;4.81;70.72;101923.22;10220849;29;19969;-62
2023/01/25 11:31:21;;;;;;;22.30;10.60;;;;;;;4.84;69.94;101919.50;10209605;29;20048;-62
2023/01/25 11:36:38;;;;;;;19.90;9.05;;;;;;;4.72;70.57;101910.47;10222999;29;20048;-61
2023/01/25 11:42:17;;;;;;;22.27;9.30;;;;;;;4.37;71.52;101889.66;10227945;29;20051;-61
2023/01/25 11:47:40;;;;;;;23.88;9.40;;;;;;;4.28;71.47;101876.91;10224827;29;20246;-62
2023/01/25 11:53:12;;;;;;;22.42;8.85;;;;;;;4.12;71.70;101869.91;10218711;29;20091;-62
2023/01/25 11:58:17;;;;;;;21.60;9.63;;;;;;;4.11;71.49;101862.03;10219171;29;20140;-62
2023/01/25 12:03:46;;;;;;;22.65;9.30;;;;;;;4.25;71.50;101842.53;10224774;29;20070;-62
2023/01/25 12:09:09;;;;;;;24.33;10.63;;;;;;;4.31;71.33;101837.66;10221452;29;20074;-61
2023/01/25 12:14:42;;;;;;;22.23;9.70;;;;;;;4.40;71.18;101830.88;10202988;29;20080;-62
2023/01/25 12:19:59;;;;;;;23.48;9.68;;;;;;;4.55;70.73;101813.06;10212614;29;20039;-62
2023/01/25 12:25:16;;;;;;;20.70;9.40;;;;;;;4.65;70.72;101808.00;10214542;29;20076;-61
2023/01/25 12:30:53;;;;;;;22.03;9.47;;;;;;;4.56;70.89;101794.34;10225715;29;20059;-62
2023/01/25 12:36:10;;;;;;;21.25;8.95;;;;;;;4.49;70.71;101789.50;10225016;29;20112;-62
2023/01/25 12:41:38;;;;;;;23.92;9.40;;;;;;;4.56;71.19;101785.47;10224993;28;20055;-60
2023/01/25 12:46:50;;;;;;;23.13;10.27;;;;;;;4.55;70.64;101776.63;10215425;29;20115;-60
2023/01/25 12:51:55;;;;;;;22.20;9.10;;;;;;;4.51;70.93;101768.97;10220715;29;20047;-61
2023/01/25 12:57:11;;;;;;;23.58;10.15;;;;;;;4.41;71.19;101768.72;10222544;29;20047;-59
2023/01/25 13:02:40;;;;;;;27.75;10.77;;;;;;;4.48;70.94;101754.03;10221585;29;20036;-60
2023/01/25 13:08:01;;;;;;;23.80;10.48;;;;;;;4.29;71.19;101742.91;10204019;29;20089;-60
2023/01/25 13:13:19;;;;;;;21.58;9.30;;;;;;;4.47;70.99;101733.69;10218202;29;20056;-60
2023/01/25 13:18:23;;;;;;;26.67;9.82;;;;;;;4.62;70.56;101715.84;10217460;29;20060;-62
2023/01/25 13:23:44;;;;;;;21.98;9.27;;;;;;;4.67;70.47;101702.22;10215891;29;20056;-62
2023/01/25 13:28:48;;;;;;;22.48;9.73;;;;;;;4.66;70.74;101687.16;10216902;29;20354;-62
2023/01/25 13:33:49;;;;;;;21.17;8.77;;;;;;;4.72;70.01;101689.41;10220958;29;20089;-60
2023/01/25 13:38:51;;;;;;;22.88;9.55;;;;;;;4.79;70.17;101674.72;10219137;29;20048;-62
2023/01/25 13:44:15;;;;;;;22.10;9.60;;;;;;;4.80;70.39;101676.44;10220196;29;20052;-61
2023/01/25 13:49:23;;;;;;;22.52;9.68;;;;;;;4.88;70.37;101667.94;10204631;29;20064;-61
2023/01/25 13:54:24;;;;;;;;;;;;;;;4.67;70.85;101662.25;10218616;29;20080;-62
2023/01/25 13:59:27;;;;;;;21.38;8.05;;;;;;;4.46;70.97;101657.41;10220219;29;19927;-61
2023/01/25 14:04:31;;;;;;;21.85;9.60;;;;;;;4.57;71.10;101646.91;10224107;29;20306;-62
2023/01/25 14:09:33;;;;;;;22.75;10.25;;;;;;;4.47;71.28;101640.50;10221432;29;20059;-61
2023/01/25 14:14:34;;;;;;;23.85;9.25;;;;;;;4.06;72.04;101636.16;10220207;29;20063;-60
2023/01/25 14:19:39;;;;;;;24.92;10.10;;;;;;;4.06;71.72;101627.31;10224453;29;20157;-61
2023/01/25 14:24:40;;;;;;;23.08;8.35;;;;;;;4.17;71.28;101620.31;10229954;29;20056;-60
2023/01/25 14:29:47;;;;;;;28.67;10.18;;;;;;;3.98;71.69;101622.50;10226907;29;20060;-62
2023/01/25 14:34:48;;;;;;;26.93;10.17;;;;;;;4.14;71.26;101619.69;10224661;29;20087;-61
2023/01/25 14:39:51;;;;;;;27.08;10.70;;;;;;;4.29;70.92;101610.66;10231403;29;20051;-62
2023/01/25 14:44:52;;;;;;;24.15;9.85;;;;;;;4.45;71.16;101593.66;10228730;29;20047;-62
2023/01/25 14:49:53;;;;;;;24.60;9.50;;;;;;;4.48;71.12;101590.75;10226556;29;20956;-60
2023/01/25 14:54:57;;;;;;;22.77;8.98;;;;;;;4.48;70.79;101583.66;10224192;29;20056;-60
2023/01/25 15:00:00;;;;;;;29.48;10.75;;;;;;;4.54;70.79;101585.88;10225358;29;20082;-62
2023/01/25 15:05:05;;;;;;;23.63;10.23;;;;;;;4.58;70.63;101578.50;10225567;29;20055;-63
2023/01/25 15:10:19;;;;;;;24.98;10.25;;;;;;;4.52;70.70;101574.50;10224997;29;20119;-63
2023/01/25 15:15:22;;;;;;;23.67;10.60;;;;;;;4.26;71.23;101562.94;10212927;29;20040;-62
2023/01/25 15:20:38;;;;;;;25.75;11.10;;;;;;;4.01;71.50;101562.91;10228248;29;20056;-60
2023/01/25 15:26:22;;;;;;;22.60;9.07;;;;;;;3.74;72.20;101559.34;10222087;29;20047;-62
2023/01/25 15:31:28;;;;;;;27.08;10.75;;;;;;;3.85;71.77;101557.78;10187153;29;20056;-63
2023/01/25 15:36:31;;;;;;;25.52;9.38;;;;;;;3.80;71.73;101549.25;10225653;29;20056;-60
2023/01/25 15:41:32;;;;;;;30.20;12.00;;;;;;;3.73;72.14;101556.78;10230951;29;20095;-62
2023/01/25 15:46:36;;;;;;;29.10;10.80;;;;;;;3.72;71.92;101550.63;10227129;29;20051;-62
2023/01/25 15:51:37;;;;;;;23.25;9.30;;;;;;;3.56;72.41;101548.13;10227439;29;20044;-62
2023/01/25 15:56:41;;;;;;;27.50;10.27;;;;;;;3.58;72.06;101548.03;10229892;28;20143;-61
2023/01/25 16:01:43;;;;;;;33.80;12.23;;;;;;;3.73;72.05;101549.69;10229303;28;20055;-62
2023/01/25 16:06:48;;;;;;;29.25;11.18;;;;;;;3.85;71.64;101539.16;10226197;29;20052;-62
2023/01/25 16:11:55;;;;;;;23.67;11.13;;;;;;;3.80;72.00;101544.78;10230126;29;20063;-64
2023/01/25 16:22:33;;;;;;;28.67;10.85;;;;;;;3.68;72.17;101546.47;2498490;23;20112;-88
2023/01/25 16:27:35;;;;;;;30.55;11.50;;;;;;;3.62;72.58;101544.22;10236063;28;20056;-87
2023/01/25 16:32:37;;;;;;;29.77;11.00;;;;;;;3.64;72.19;101544.97;10225758;29;20137;-88
2023/01/25 16:37:38;;;;;;;27.25;10.15;;;;;;;3.72;72.42;101541.78;10247084;28;20138;-88
2023/01/25 16:42:40;;;;;;;27.33;9.48;;;;;;;3.61;72.34;101537.16;10211107;29;20058;-87
2023/01/25 16:47:42;;;;;;;29.83;10.88;;;;;;;3.65;72.34;101530.69;10214716;28;20056;-88
2023/01/25 16:52:44;;;;;;;28.92;10.80;;;;;;;3.58;72.27;101529.41;10215818;29;20055;-86
2023/01/25 16:57:50;;;;;;;39.00;12.38;;;;;;;3.72;72.22;101524.03;10218465;29;20055;-88
2023/01/25 17:02:51;;;;;;;34.92;13.02;;;;;;;3.67;72.12;101510.19;10222176;29;20376;-89
2023/01/25 17:08:00;;;;;;;39.20;12.02;;;;;;;3.81;72.17;101505.75;10234232;28;20498;-89
2023/01/25 17:18:18;;;;;;;35.58;12.68;;;;;;;3.91;71.85;101507.69;10534501;23;20072;-87
2023/01/25 17:23:21;;;;;;;30.25;12.43;;;;;;;4.03;71.86;101499.81;10211556;28;20047;-88
2023/01/25 17:28:23;;;;;;;28.48;11.52;;;;;;;4.08;72.00;101492.38;10231906;28;20098;-87
2023/01/25 17:33:24;;;;;;;35.47;11.50;;;;;;;4.10;71.75;101496.63;10218767;28;20134;-88
2023/01/25 17:38:26;;;;;;;30.27;11.23;;;;;;;4.16;72.15;101487.38;10210157;28;20039;-88
2023/01/25 17:43:28;;;;;;;30.13;11.95;;;;;;;4.15;71.82;101475.88;10211251;28;20092;-89
2023/01/25 17:48:33;;;;;;;28.88;12.35;;;;;;;4.16;71.94;101474.91;10230586;28;20075;-89
2023/01/25 17:53:35;;;;;;;26.80;11.35;;;;;;;4.13;71.79;101469.81;10226299;28;20051;-90
2023/01/25 17:58:42;;;;;;;28.92;12.55;;;;;;;4.17;71.98;101463.31;10243297;28;20075;-89
2023/01/25 18:03:45;;;;;;;;;;;;;;;4.24;71.71;101458.41;10224476;28;20075;-89
2023/01/25 18:08:48;;;;;;;39.95;14.35;;;;;;;4.28;71.67;101451.06;10229274;28;19927;-89
2023/01/25 18:13:54;;;;;;;30.27;12.52;;;;;;;4.33;71.55;101448.94;10229816;28;20047;-88
2023/01/25 18:18:59;;;;;;;34.50;12.27;;;;;;;4.27;71.69;101436.06;10219820;28;20055;-88
2023/01/25 18:24:05;;;;;;;26.23;10.07;;;;;;;4.25;71.80;101438.00;10223884;28;20138;-88
2023/01/25 18:29:09;;;;;;;29.95;11.27;;;;;;;4.14;71.90;101436.06;10208761;28;20062;-87
2023/01/25 18:34:13;;;;;;;33.42;13.63;;;;;;;4.11;71.94;101429.16;10215769;28;20112;-87
2023/01/25 18:39:14;;;;;;;34.63;13.35;;;;;;;4.15;71.54;101428.00;10216204;28;20058;-87
2023/01/25 18:44:16;;;;;;;38.75;13.30;;;;;;;4.04;72.03;101424.38;10229360;28;20058;-87
2023/01/25 18:49:17;;;;;;;35.58;14.50;;;;;;;4.05;71.78;101410.97;10212090;28;20191;-87
2023/01/25 18:54:19;;;;;;;36.47;13.27;;;;;;;3.96;72.23;101404.47;10206224;28;20047;-86
2023/01/25 18:59:23;;;;;;;38.47;14.90;;;;;;;3.86;71.97;101399.91;10209270;28;20410;-86
2023/01/25 19:04:27;;;;;;;40.85;13.95;;;;;;;3.68;72.55;101407.34;10206392;28;20075;-86
2023/01/25 19:09:29;;;;;;;38.47;15.57;;;;;;;3.80;72.37;101406.50;10210305;28;20082;-85
2023/01/25 19:14:31;;;;;;;37.88;13.63;;;;;;;3.54;72.69;101398.50;10204383;28;20059;-86
2023/01/25 19:19:32;;;;;;;33.15;11.52;;;;;;;3.48;72.70;101390.13;10199503;28;20063;-85
2023/01/25 19:24:34;;;;;;;39.17;13.32;;;;;;;3.57;72.41;101378.81;10207057;28;20055;-85
2023/01/25 19:29:36;;;;;;;39.20;13.40;;;;;;;3.66;72.28;101374.72;10225857;28;20593;-86
2023/01/25 19:34:37;;;;;;;37.63;14.55;;;;;;;3.67;72.25;101376.38;10229439;28;20054;-87
2023/01/25 19:39:39;;;;;;;35.50;13.38;;;;;;;3.72;72.03;101368.97;10205465;28;20059;-87
2023/01/25 19:44:41;;;;;;;35.58;12.07;;;;;;;3.72;72.38;101364.47;10226581;28;20046;-87
2023/01/25 19:49:45;;;;;;;34.70;12.40;;;;;;;3.74;72.36;101362.56;10240031;28;20063;-86
2023/01/25 19:54:50;;;;;;;35.07;12.43;;;;;;;3.74;72.23;101348.44;10243237;28;20051;-86
2023/01/25 19:59:52;;;;;;;35.78;12.98;;;;;;;3.77;72.24;101343.75;10251387;28;20091;-86
2023/01/25 20:04:54;;;;;;;36.08;13.25;;;;;;;3.87;72.31;101337.75;10236582;28;20059;-86
2023/01/25 20:09:58;;;;;;;31.10;12.93;;;;;;;3.92;72.46;101328.50;10257525;28;20051;-86
2023/01/25 20:15:02;;;;;;;40.53;12.48;;;;;;;3.98;72.22;101330.72;10217909;28;20055;-87
2023/01/25 20:20:05;;;;;;;33.13;12.23;;;;;;;4.01;72.09;101324.38;10217367;28;20062;-87
2023/01/25 20:25:07;;;;;;;35.55;12.48;;;;;;;4.01;72.11;101318.16;10213461;28;20059;-86
2023/01/25 20:30:09;;;;;;;33.10;13.38;;;;;;;3.90;72.28;101322.44;10225319;28;20143;-86
2023/01/25 20:35:11;;;;;;;37.28;14.00;;;;;;;3.87;72.71;101313.84;10224944;28;20052;-86
2023/01/25 20:40:16;;;;;;;37.80;13.63;;;;;;;3.78;72.14;101318.84;10220233;28;20058;-87
2023/01/25 20:45:20;;;;;;;34.22;13.82;;;;;;;3.51;72.71;101326.94;10215434;28;20055;-87
2023/01/25 20:50:22;;;;;;;41.42;13.75;;;;;;;3.59;72.44;101321.09;10213925;28;20054;-88
2023/01/25 20:55:25;;;;;;;43.58;13.73;;;;;;;3.57;72.65;101320.34;10217776;28;20066;-87
2023/01/25 21:00:32;;;;;;;47.53;14.65;;;;;;;3.54;73.33;101304.63;10208122;28;20051;-87
2023/01/25 21:05:36;;;;;;;46.00;14.80;;;;;;;3.44;73.40;101298.25;10217204;28;20047;-86
2023/01/25 21:10:37;;;;;;;38.35;13.07;;;;;;;3.35;73.34;101307.69;10212789;28;20139;-86
2023/01/25 21:15:39;;;;;;;33.10;12.73;;;;;;;3.36;73.09;101296.97;10237805;28;20059;-87
2023/01/25 21:20:40;;;;;;;36.60;13.35;;;;;;;3.18;73.60;101296.44;10232246;28;20066;-87
2023/01/25 21:25:50;;;;;;;39.53;14.18;;;;;;;3.36;72.90;101280.19;10228953;28;20048;-87
2023/01/25 21:31:01;;;;;;;37.55;14.02;;;;;;;3.46;72.69;101267.94;10214205;28;20059;-88
2023/01/25 21:36:17;;;;;;;37.75;12.20;;;;;;;3.53;72.55;101271.00;10195426;28;20106;-88
2023/01/25 21:41:23;;;;;;;32.47;13.50;;;;;;;3.38;73.04;101265.81;10233792;28;20072;-87
2023/01/25 21:46:27;;;;;;;30.30;10.77;;;;;;;3.27;73.54;101271.03;10231682;28;20079;-88
2023/01/25 21:51:34;;;;;;;30.15;11.80;;;;;;;3.08;73.52;101270.56;10212391;28;20607;-87
2023/01/25 21:56:43;;;;;;;28.92;10.73;;;;;;;3.09;73.93;101257.19;10226089;28;20082;-91
2023/01/25 22:01:49;;;;;;;27.52;11.43;;;;;;;3.12;73.42;101242.84;10214022;28;20051;-89
2023/01/25 22:06:55;;;;;;;32.55;11.85;;;;;;;3.26;73.06;101231.25;10207069;28;20450;-89
2023/01/25 22:11:57;;;;;;;27.77;10.45;;;;;;;3.33;72.89;101211.28;10217175;28;20044;-89
2023/01/25 22:16:59;;;;;;;38.42;12.98;;;;;;;3.37;72.92;101204.81;10218340;28;20047;-90
2023/01/25 22:22:01;;;;;;;37.45;12.63;;;;;;;3.45;72.85;101204.25;10215782;28;20051;-87
2023/01/25 22:27:31;;;;;;;37.10;12.80;;;;;;;3.57;72.59;101193.63;10220232;28;20421;-89
2023/01/25 22:32:33;;;;;;;39.28;14.07;;;;;;;3.70;72.49;101193.56;10230235;28;20043;-89
2023/01/25 22:37:36;;;;;;;36.75;13.38;;;;;;;3.77;72.89;101189.53;10225349;28;20075;-89
2023/01/25 22:42:38;;;;;;;33.10;12.23;;;;;;;3.75;72.59;101186.13;10223329;28;20052;-89
2023/01/25 22:47:41;;;;;;;32.55;12.52;;;;;;;3.69;72.90;101185.69;10221488;28;20056;-87
2023/01/25 22:52:43;;;;;;;30.13;13.10;;;;;;;3.52;72.84;101190.44;10217341;28;20392;-87
2023/01/25 22:57:44;;;;;;;28.65;12.65;;;;;;;3.61;72.45;101180.09;10225918;28;20100;-88
2023/01/25 23:02:46;;;;;;;26.65;11.02;;;;;;;3.61;72.99;101162.31;10218844;28;20058;-88
2023/01/25 23:07:48;;;;;;;25.17;9.55;;;;;;;3.57;72.53;101163.50;10231342;28;20054;-89
2023/01/25 23:12:52;;;;;;;24.52;10.20;;;;;;;3.38;73.26;101153.38;10226659;28;20134;-89
2023/01/25 23:23:13;;;;;;;20.40;7.97;;;;;;;3.29;73.23;101149.53;10243519;28;20062;-89
2023/01/25 23:28:15;;;;;;;20.58;8.23;;;;;;;3.29;73.22;101146.88;10218979;28;20146;-88
2023/01/25 23:33:16;;;;;;;18.33;8.55;;;;;;;3.31;73.14;101149.44;10230389;28;20054;-88